Time;durP1;ratioP1;P1;durP2;ratioP2;P2;SDS_P1;SDS_P2;PMS_P1;PMS_P2;Temp;Humidity;BMP_temperature;BMP_pressure;BME280_temperature;BME280_humidity;BME280_pressure;Samples;Min_cycle;Max_cycle;Signal;HPM_P1;HPM_P2
2023/06/30 00:00:00;;;;;;;4.57;3.42;;;512.10;2380.80;;;;;;5082762;28;20024;-71
2023/06/30 00:02:25;;;;;;;10.52;4.72;;;512.30;2380.80;;;;;;5077101;28;20016;-72
2023/06/30 00:04:51;;;;;;;4.53;3.13;;;512.50;2380.80;;;;;;5080808;28;20017;-71
2023/06/30 00:07:21;;;;;;;7.65;4.03;;;512.60;2380.80;;;;;;5079412;28;20059;-71
2023/06/30 00:09:48;;;;;;;5.80;3.70;;;512.80;2380.80;;;;;;5078383;28;20032;-71
2023/06/30 00:12:14;;;;;;;6.57;4.50;;;512.90;2380.80;;;;;;5087744;28;20489;-76
2023/06/30 00:14:39;;;;;;;6.35;4.10;;;512.90;2380.80;;;;;;5078823;28;20016;-71
2023/06/30 00:17:05;;;;;;;6.07;3.88;;;537.70;2406.40;;;;;;5079835;28;20078;-71
2023/06/30 00:19:31;;;;;;;6.00;4.05;;;537.70;2406.40;;;;;;5080004;28;20032;-72
2023/06/30 00:21:57;;;;;;;8.25;4.82;;;537.80;2406.40;;;;;;5076618;28;20033;-72
2023/06/30 00:24:23;;;;;;;7.22;3.97;;;537.70;2406.40;;;;;;5083290;28;20047;-71
2023/06/30 00:26:49;;;;;;;7.38;3.95;;;537.80;2406.40;;;;;;5079218;28;20028;-72
2023/06/30 00:29:14;;;;;;;6.82;3.85;;;537.90;2406.40;;;;;;5087116;28;20074;-71
2023/06/30 00:31:40;;;;;;;4.68;3.45;;;537.90;2406.40;;;;;;5094289;28;20085;-71
2023/06/30 00:34:06;;;;;;;5.97;3.47;;;537.90;2406.40;;;;;;5088432;28;20033;-71
2023/06/30 00:36:31;;;;;;;5.22;3.40;;;537.90;2406.40;;;;;;5094354;28;20020;-70
2023/06/30 00:38:58;;;;;;;5.65;3.75;;;537.70;2406.40;;;;;;5093897;28;20474;-71
2023/06/30 00:41:24;;;;;;;5.80;3.72;;;537.70;2406.40;;;;;;5093559;28;20074;-71
2023/06/30 00:43:50;;;;;;;6.30;3.47;;;537.80;2406.40;;;;;;5094335;28;20024;-71
2023/06/30 00:46:19;;;;;;;5.50;3.67;;;537.70;2406.40;;;;;;5092703;28;20375;-76
2023/06/30 00:48:45;;;;;;;4.38;3.05;;;537.70;2406.40;;;;;;5094197;28;20048;-72
2023/06/30 00:51:13;;;;;;;10.02;3.53;;;537.70;2406.40;;;;;;5093946;28;20031;-78
2023/06/30 00:53:39;;;;;;;7.13;3.75;;;537.60;2406.40;;;;;;5093582;28;20046;-72
2023/06/30 00:56:05;;;;;;;7.95;3.50;;;537.60;2406.40;;;;;;5093851;28;20044;-71
2023/06/30 00:58:31;;;;;;;6.15;3.30;;;512.90;2380.80;;;;;;5094030;28;20039;-72
2023/06/30 01:01:07;;;;;;;6.05;3.63;;;537.60;2406.40;;;;;;5093757;28;20024;-71
2023/06/30 01:04:07;;;;;;;7.68;3.85;;;512.90;2380.80;;;;;;5093757;28;20012;-71
2023/06/30 01:06:38;;;;;;;7.13;3.50;;;512.80;2380.80;;;;;;5093704;28;20130;-71
2023/06/30 01:09:17;;;;;;;5.57;3.78;;;537.60;2406.40;;;;;;5093521;28;20107;-73
2023/06/30 01:11:43;;;;;;;5.22;3.45;;;537.70;2406.40;;;;;;5093654;28;20036;-71
2023/06/30 01:14:10;;;;;;;4.40;3.28;;;537.60;2406.40;;;;;;5093654;28;20502;-76
2023/06/30 01:16:36;;;;;;;6.97;4.03;;;512.90;2380.80;;;;;;5092178;28;20518;-72
2023/06/30 01:19:15;;;;;;;5.93;3.58;;;512.90;2380.80;;;;;;5093610;28;20022;-72
2023/06/30 01:21:42;;;;;;;5.32;3.53;;;512.90;2380.80;;;;;;5092350;28;20027;-71
2023/06/30 01:24:11;;;;;;;7.38;3.70;;;512.90;2380.80;;;;;;5093234;28;20069;-78
2023/06/30 01:26:37;;;;;;;7.78;3.42;;;512.80;2380.80;;;;;;5093528;28;20107;-71
2023/06/30 01:29:06;;;;;;;6.18;3.33;;;512.70;2380.80;;;;;;5093560;28;20029;-72
2023/06/30 01:31:32;;;;;;;8.52;3.75;;;512.60;2380.80;;;;;;5093254;28;20477;-71
2023/06/30 01:34:01;;;;;;;8.30;4.25;;;512.40;2380.80;;;;;;5093228;28;20020;-72
2023/06/30 01:36:27;;;;;;;8.30;4.15;;;512.10;2380.80;;;;;;5093299;28;20103;-71
2023/06/30 01:38:53;;;;;;;7.05;4.15;;;487.30;2380.80;;;;;;5093122;28;20116;-73
2023/06/30 01:41:20;;;;;;;6.40;3.63;;;487.10;2380.80;;;;;;5093256;28;20024;-72
2023/06/30 01:43:47;;;;;;;9.77;4.45;;;486.90;2380.80;;;;;;5093216;28;20024;-72
2023/06/30 01:46:14;;;;;;;6.07;4.88;;;486.90;2380.80;;;;;;5093094;28;20017;-78
2023/06/30 01:48:40;;;;;;;11.70;4.45;;;486.80;2380.80;;;;;;5093296;28;20028;-72
2023/06/30 01:51:08;;;;;;;7.53;4.60;;;486.70;2380.80;;;;;;5093225;28;20110;-72
2023/06/30 01:53:34;;;;;;;8.20;4.88;;;486.70;2380.80;;;;;;5099028;28;20027;-70
2023/06/30 01:56:00;;;;;;;7.68;4.30;;;486.70;2380.80;;;;;;5099348;28;20054;-78
2023/06/30 01:58:25;;;;;;;7.85;4.78;;;486.60;2380.80;;;;;;5099554;28;20507;-77
2023/06/30 02:00:51;;;;;;;6.72;4.47;;;486.40;2380.80;;;;;;5099921;28;20027;-72
2023/06/30 02:03:17;;;;;;;9.38;5.03;;;486.40;2380.80;;;;;;5099804;28;20095;-77
2023/06/30 02:05:42;;;;;;;11.63;4.88;;;461.60;2380.80;;;;;;5099852;28;20031;-78
2023/06/30 02:08:08;;;;;;;7.38;5.07;;;461.50;2380.80;;;;;;5099733;28;20099;-71
2023/06/30 02:10:33;;;;;;;8.60;5.03;;;461.40;2380.80;;;;;;5099655;28;20119;-73
2023/06/30 02:12:59;;;;;;;8.65;5.38;;;461.40;2380.80;;;;;;5099742;28;20078;-71
2023/06/30 02:15:25;;;;;;;10.25;4.72;;;461.30;2380.80;;;;;;5099693;28;20034;-77
2023/06/30 02:17:50;;;;;;;7.57;4.72;;;461.40;2380.80;;;;;;5099593;28;20028;-78
2023/06/30 02:20:17;;;;;;;7.93;4.35;;;461.70;2380.80;;;;;;5099715;28;20111;-73
2023/06/30 02:22:43;;;;;;;6.70;4.57;;;486.40;2380.80;;;;;;5099545;28;20047;-72
2023/06/30 02:25:09;;;;;;;11.05;5.60;;;486.40;2380.80;;;;;;5099322;28;20051;-75
2023/06/30 02:27:35;;;;;;;5.78;4.18;;;486.50;2380.80;;;;;;5099623;28;20032;-73
2023/06/30 02:30:04;;;;;;;9.73;4.55;;;486.70;2380.80;;;;;;5099523;28;20397;-77
2023/06/30 02:32:31;;;;;;;6.90;4.40;;;486.80;2380.80;;;;;;5099572;28;20012;-71
2023/06/30 02:34:57;;;;;;;8.73;4.55;;;486.90;2380.80;;;;;;5099387;28;20485;-70
2023/06/30 02:37:22;;;;;;;6.90;5.25;;;487.00;2380.80;;;;;;5099512;28;20031;-75
2023/06/30 02:39:48;;;;;;;9.30;5.38;;;487.10;2380.80;;;;;;5099398;28;20024;-72
2023/06/30 02:42:14;;;;;;;6.22;4.80;;;487.10;2380.80;;;;;;5099506;28;20065;-71
2023/06/30 02:44:39;;;;;;;6.30;4.93;;;487.00;2380.80;;;;;;5099579;28;20024;-75
2023/06/30 02:47:05;;;;;;;6.55;5.00;;;486.70;2380.80;;;;;;5099349;28;20024;-72
2023/06/30 02:49:31;;;;;;;7.40;4.75;;;486.70;2380.80;;;;;;5099279;28;20031;-77
2023/06/30 02:51:57;;;;;;;7.20;4.78;;;486.80;2380.80;;;;;;5099479;28;20028;-71
2023/06/30 02:54:22;;;;;;;12.07;5.53;;;486.70;2380.80;;;;;;5099054;28;20055;-73
2023/06/30 02:56:48;;;;;;;6.80;5.10;;;486.50;2380.80;;;;;;5099164;28;20040;-71
2023/06/30 02:59:14;;;;;;;10.43;5.05;;;461.70;2380.80;;;;;;5099465;28;20481;-72
2023/06/30 03:01:41;;;;;;;7.88;5.35;;;461.60;2380.80;;;;;;5098965;28;20031;-77
2023/06/30 03:04:06;;;;;;;7.70;5.35;;;461.60;2380.80;;;;;;5096870;28;20377;-71
2023/06/30 03:06:32;;;;;;;13.38;6.00;;;461.50;2380.80;;;;;;5094865;28;20036;-78
2023/06/30 03:08:58;;;;;;;8.13;5.28;;;461.40;2380.80;;;;;;5095914;28;20024;-78
2023/06/30 03:11:25;;;;;;;14.52;6.15;;;461.30;2380.80;;;;;;5096036;28;20043;-77
2023/06/30 03:13:52;;;;;;;14.40;6.72;;;461.10;2380.80;;;;;;5095957;28;20028;-72
2023/06/30 03:16:17;;;;;;;11.60;5.43;;;461.10;2380.80;;;;;;5095934;28;20027;-74
2023/06/30 03:18:44;;;;;;;14.75;6.43;;;461.10;2380.80;;;;;;5095794;28;20138;-73
2023/06/30 03:21:09;;;;;;;9.48;6.35;;;461.00;2380.80;;;;;;5096067;28;20024;-71
2023/06/30 03:23:36;;;;;;;11.38;5.70;;;460.90;2380.80;;;;;;5095941;28;20016;-71
2023/06/30 03:26:01;;;;;;;11.10;6.30;;;460.90;2380.80;;;;;;5095528;28;20047;-78
2023/06/30 03:28:27;;;;;;;10.45;6.25;;;461.10;2380.80;;;;;;5095491;28;20024;-72
2023/06/30 03:30:53;;;;;;;11.77;6.57;;;461.30;2380.80;;;;;;5095505;28;20064;-70
2023/06/30 03:33:19;;;;;;;10.73;6.32;;;461.40;2380.80;;;;;;5095651;28;20528;-79
2023/06/30 03:35:46;;;;;;;11.75;6.43;;;461.30;2380.80;;;;;;5095639;28;20032;-69
2023/06/30 03:38:12;;;;;;;11.40;6.57;;;461.20;2380.80;;;;;;5095696;28;20028;-71
2023/06/30 03:40:37;;;;;;;11.45;6.80;;;461.40;2380.80;;;;;;5095359;28;20024;-71
2023/06/30 03:43:03;;;;;;;10.18;6.35;;;461.50;2380.80;;;;;;5095499;28;20103;-72
2023/06/30 03:45:29;;;;;;;7.95;6.22;;;461.40;2380.80;;;;;;5095306;28;20024;-71
2023/06/30 03:47:54;;;;;;;10.23;6.70;;;461.50;2380.80;;;;;;5095179;28;20495;-77
2023/06/30 03:50:20;;;;;;;12.57;7.88;;;461.60;2380.80;;;;;;5095097;28;20085;-71
2023/06/30 03:52:46;;;;;;;16.77;7.05;;;461.70;2380.80;;;;;;5095294;28;20509;-72
2023/06/30 03:55:11;;;;;;;10.80;7.20;;;486.40;2380.80;;;;;;5094872;28;20051;-76
2023/06/30 03:57:37;;;;;;;12.07;7.10;;;486.50;2380.80;;;;;;5095213;28;20036;-71
2023/06/30 04:00:04;;;;;;;14.02;7.07;;;486.60;2380.80;;;;;;5095104;28;20024;-71
2023/06/30 04:02:30;;;;;;;12.27;6.97;;;486.70;2380.80;;;;;;5094943;28;20073;-71
2023/06/30 04:04:55;;;;;;;11.10;8.25;;;486.80;2380.80;;;;;;5094930;28;20024;-77
2023/06/30 04:07:21;;;;;;;12.73;7.53;;;486.90;2380.80;;;;;;5094808;28;20024;-76
2023/06/30 04:09:47;;;;;;;12.32;7.90;;;487.00;2380.80;;;;;;5094584;28;20020;-77
2023/06/30 04:12:13;;;;;;;10.55;7.55;;;487.10;2380.80;;;;;;5094788;28;20028;-72
2023/06/30 04:14:39;;;;;;;14.95;7.45;;;487.10;2380.80;;;;;;5094780;28;20158;-71
2023/06/30 04:17:05;;;;;;;11.88;7.30;;;487.20;2380.80;;;;;;5093650;28;20035;-71
2023/06/30 04:19:30;;;;;;;15.02;7.72;;;487.30;2380.80;;;;;;5094599;28;20106;-74
2023/06/30 04:21:56;;;;;;;11.98;8.40;;;487.30;2380.80;;;;;;5094551;28;20107;-73
2023/06/30 04:24:22;;;;;;;11.55;7.22;;;512.00;2380.80;;;;;;5094359;28;20038;-72
2023/06/30 04:26:47;;;;;;;9.60;6.85;;;512.10;2380.80;;;;;;5094428;28;20098;-72
2023/06/30 04:29:13;;;;;;;9.50;7.40;;;512.10;2380.80;;;;;;5091209;28;20020;-71
2023/06/30 04:31:39;;;;;;;14.38;7.43;;;512.10;2380.80;;;;;;5078997;28;20116;-70
2023/06/30 04:34:05;;;;;;;11.50;7.43;;;512.20;2380.80;;;;;;5077029;28;20031;-71
2023/06/30 04:36:31;;;;;;;8.90;6.90;;;512.30;2380.80;;;;;;5078070;28;20133;-70
2023/06/30 04:38:57;;;;;;;10.88;7.47;;;512.30;2380.80;;;;;;5077866;28;20508;-71
2023/06/30 04:41:23;;;;;;;10.82;6.53;;;512.30;2380.80;;;;;;5078133;28;20016;-71
2023/06/30 04:43:49;;;;;;;16.27;7.40;;;512.40;2380.80;;;;;;5082862;28;20538;-70
2023/06/30 04:46:16;;;;;;;13.52;6.82;;;512.40;2380.80;;;;;;5076234;28;20489;-70
2023/06/30 04:48:41;;;;;;;12.55;7.22;;;512.60;2380.80;;;;;;5073639;28;20462;-71
2023/06/30 04:51:07;;;;;;;13.00;7.20;;;512.70;2380.80;;;;;;5082130;28;20047;-72
2023/06/30 04:53:33;;;;;;;12.38;6.90;;;512.70;2380.80;;;;;;5078903;28;20054;-70
2023/06/30 04:55:59;;;;;;;9.85;6.75;;;512.80;2380.80;;;;;;5081047;28;20125;-71
2023/06/30 04:58:24;;;;;;;12.88;6.85;;;512.90;2380.80;;;;;;5077927;28;20088;-70
2023/06/30 05:00:50;;;;;;;8.95;7.15;;;512.90;2380.80;;;;;;5078750;28;20023;-73
2023/06/30 05:03:16;;;;;;;11.70;6.25;;;537.60;2406.40;;;;;;5075875;28;20590;-71
2023/06/30 05:05:41;;;;;;;14.05;6.60;;;537.60;2406.40;;;;;;5076089;28;20016;-71
2023/06/30 05:08:07;;;;;;;14.30;9.05;;;537.70;2406.40;;;;;;5079058;28;20101;-72
2023/06/30 05:10:33;;;;;;;11.45;6.88;;;537.80;2406.40;;;;;;5077759;28;20482;-70
2023/06/30 05:12:58;;;;;;;11.32;7.32;;;537.90;2406.40;;;;;;5075829;28;20477;-73
2023/06/30 05:15:24;;;;;;;12.73;8.07;;;538.00;2406.40;;;;;;5076785;28;20028;-72
2023/06/30 05:17:50;;;;;;;10.07;6.90;;;538.10;2406.40;;;;;;5078940;28;20017;-71
2023/06/30 05:20:15;;;;;;;10.25;6.57;;;538.20;2406.40;;;;;;5075998;28;20098;-71
2023/06/30 05:22:41;;;;;;;10.70;6.28;;;538.10;2406.40;;;;;;5078656;28;20044;-71
2023/06/30 05:25:07;;;;;;;10.57;6.75;;;538.30;2406.40;;;;;;5076905;28;20036;-71
2023/06/30 05:27:33;;;;;;;8.93;6.60;;;538.40;2406.40;;;;;;5083440;28;20028;-71
2023/06/30 05:29:59;;;;;;;10.57;6.93;;;538.50;2406.40;;;;;;5075141;28;20082;-71
2023/06/30 05:32:25;;;;;;;14.43;6.35;;;563.20;2432.00;;;;;;5078558;28;20028;-76
2023/06/30 05:34:51;;;;;;;10.23;6.63;;;563.30;2432.00;;;;;;5081753;28;20428;-71
2023/06/30 05:37:16;;;;;;;18.40;6.97;;;563.40;2432.00;;;;;;5073028;28;20623;-70
2023/06/30 05:39:42;;;;;;;10.32;5.68;;;563.50;2432.00;;;;;;5080057;28;20078;-71
2023/06/30 05:42:08;;;;;;;9.25;6.13;;;563.60;2432.00;;;;;;5078155;28;20089;-70
2023/06/30 05:44:34;;;;;;;10.43;6.00;;;563.60;2432.00;;;;;;5074283;28;20036;-72
2023/06/30 05:47:01;;;;;;;10.00;5.70;;;563.80;2432.00;;;;;;5079725;28;20024;-72
2023/06/30 05:49:27;;;;;;;10.80;6.55;;;563.80;2432.00;;;;;;5079330;28;20027;-70
2023/06/30 05:51:53;;;;;;;9.95;6.50;;;563.90;2432.00;;;;;;5076584;28;20036;-70
2023/06/30 05:54:19;;;;;;;12.38;6.70;;;563.90;2432.00;;;;;;5079956;28;20098;-71
2023/06/30 05:56:45;;;;;;;9.15;6.20;;;564.10;2432.00;;;;;;5074987;28;20498;-71
2023/06/30 05:59:11;;;;;;;12.32;6.32;;;564.10;2432.00;;;;;;5075267;28;20486;-71
2023/06/30 06:01:39;;;;;;;11.48;6.72;;;588.90;2432.00;;;;;;5078314;28;20035;-72
2023/06/30 06:04:10;;;;;;;9.05;6.53;;;588.80;2432.00;;;;;;5085571;28;20122;-76
2023/06/30 06:06:39;;;;;;;9.18;5.97;;;588.90;2432.00;;;;;;5079195;28;20055;-71
2023/06/30 06:09:05;;;;;;;10.05;6.57;;;589.00;2432.00;;;;;;5086293;28;20470;-71
2023/06/30 06:11:31;;;;;;;8.63;5.45;;;589.00;2432.00;;;;;;5076794;28;20048;-72
2023/06/30 06:13:56;;;;;;;11.68;6.63;;;589.10;2432.00;;;;;;5072466;28;20493;-70
2023/06/30 06:16:22;;;;;;;10.23;6.80;;;589.20;2432.00;;;;;;5083756;28;20035;-71
2023/06/30 06:18:48;;;;;;;11.60;6.43;;;589.30;2432.00;;;;;;5078599;28;20108;-70
2023/06/30 06:21:16;;;;;;;9.52;6.35;;;589.40;2432.00;;;;;;5079083;28;20020;-71
2023/06/30 06:23:42;;;;;;;12.52;7.25;;;589.40;2432.00;;;;;;5080630;28;20024;-71
2023/06/30 06:26:07;;;;;;;9.23;6.50;;;589.50;2432.00;;;;;;5081496;28;20037;-72
2023/06/30 06:28:33;;;;;;;7.97;6.43;;;589.60;2432.00;;;;;;5074386;28;20466;-71
2023/06/30 06:30:59;;;;;;;8.63;5.85;;;589.70;2432.00;;;;;;5082388;28;20040;-71
2023/06/30 06:33:25;;;;;;;9.07;6.10;;;589.70;2432.00;;;;;;5076317;28;20021;-72
2023/06/30 06:35:51;;;;;;;12.20;5.47;;;589.70;2432.00;;;;;;5082598;28;20528;-72
2023/06/30 06:38:17;;;;;;;8.90;6.35;;;614.40;2432.00;;;;;;5075793;28;20036;-72
2023/06/30 06:40:47;;;;;;;11.40;6.68;;;614.40;2432.00;;;;;;5083900;28;20021;-71
2023/06/30 06:43:13;;;;;;;10.88;6.35;;;614.50;2432.00;;;;;;5071333;28;20027;-73
2023/06/30 06:45:39;;;;;;;12.45;6.88;;;614.60;2432.00;;;;;;5079521;28;20028;-72
2023/06/30 06:48:25;;;;;;;10.32;5.72;;;614.70;2432.00;;;;;;5080660;28;20481;-71
2023/06/30 06:50:53;;;;;;;7.47;5.85;;;614.80;2432.00;;;;;;5078281;28;20040;-72
2023/06/30 06:53:21;;;;;;;10.93;6.63;;;614.90;2432.00;;;;;;5080368;28;20025;-72
2023/06/30 06:55:50;;;;;;;8.63;7.10;;;614.90;2432.00;;;;;;5084542;28;20036;-72
2023/06/30 06:58:16;;;;;;;8.57;6.30;;;614.90;2432.00;;;;;;5076455;28;20036;-72
2023/06/30 07:00:49;;;;;;;12.80;6.15;;;614.90;2432.00;;;;;;5078237;28;20078;-72
2023/06/30 07:03:15;;;;;;;14.20;7.40;;;615.00;2432.00;;;;;;5084733;28;20016;-71
2023/06/30 07:05:43;;;;;;;12.45;6.35;;;615.20;2432.00;;;;;;5081633;28;20043;-71
2023/06/30 07:08:12;;;;;;;7.07;4.90;;;615.30;2432.00;;;;;;5078100;28;20074;-71
2023/06/30 07:10:38;;;;;;;8.63;4.75;;;640.00;2432.00;;;;;;5081696;28;20024;-71
2023/06/30 07:13:04;;;;;;;10.85;5.63;;;640.10;2304.00;;;;;;5079415;28;20100;-72
2023/06/30 07:15:30;;;;;;;10.70;5.18;;;640.10;2329.60;;;;;;5080317;28;20053;-71
2023/06/30 07:17:57;;;;;;;10.25;5.57;;;640.20;2355.20;;;;;;5077836;28;20029;-71
2023/06/30 07:20:25;;;;;;;8.40;5.60;;;640.30;2406.40;;;;;;5071571;28;20016;-73
2023/06/30 07:22:54;;;;;;;7.10;5.30;;;640.40;2432.00;;;;;;5078122;28;20063;-72
2023/06/30 07:25:20;;;;;;;6.50;4.95;;;640.50;2329.60;;;;;;5088909;28;20028;-73
2023/06/30 07:27:52;;;;;;;8.43;5.07;;;640.60;2227.20;;;;;;5078460;28;20029;-71
2023/06/30 07:30:20;;;;;;;9.93;5.15;;;640.80;2176.00;;;;;;5079745;28;20024;-76
2023/06/30 07:32:46;;;;;;;19.42;7.15;;;640.90;2176.00;;;;;;5079639;28;20008;-74
2023/06/30 07:35:12;;;;;;;13.07;5.65;;;665.60;2227.20;;;;;;5077971;28;20032;-75
2023/06/30 07:37:38;;;;;;;9.60;4.60;;;665.60;2099.20;;;;;;5077275;28;20474;-76
2023/06/30 07:40:04;;;;;;;23.80;7.47;;;665.70;1945.60;;;;;;5081850;28;20028;-74
2023/06/30 07:42:30;;;;;;;18.52;6.80;;;665.80;1971.20;;;;;;5083312;28;20040;-75
2023/06/30 07:44:56;;;;;;;18.38;7.78;;;665.90;1996.80;;;;;;5077544;28;20028;-74
2023/06/30 07:47:21;;;;;;;9.07;4.55;;;665.90;1920.00;;;;;;5074899;28;20032;-74
2023/06/30 07:49:47;;;;;;;10.38;4.70;;;666.20;1920.00;;;;;;5077038;28;20055;-73
2023/06/30 07:52:13;;;;;;;9.60;5.22;;;;;;;;;;5079138;28;20107;-74
2023/06/30 07:54:40;;;;;;;6.43;4.25;;;666.30;1996.80;;;;;;5079651;28;20470;-75
2023/06/30 07:57:05;;;;;;;5.55;3.85;;;666.50;1868.80;;;;;;5079227;28;20041;-74
2023/06/30 07:59:31;;;;;;;5.13;3.45;;;666.50;1766.40;;;;;;5079621;28;20023;-73
2023/06/30 08:01:57;;;;;;;7.32;4.30;;;666.50;1766.40;;;;;;5077952;28;20021;-73
2023/06/30 08:04:23;;;;;;;7.20;4.63;;;691.20;1843.20;;;;;;5076447;28;20024;-72
2023/06/30 08:06:49;;;;;;;6.20;4.00;;;691.20;1792.00;;;;;;5082999;28;20016;-72
2023/06/30 08:09:15;;;;;;;12.40;4.28;;;666.50;1817.60;;;;;;5077668;28;20024;-73
2023/06/30 08:11:40;;;;;;;7.82;4.28;;;691.20;1740.80;;;;;;5082452;28;20039;-73
2023/06/30 08:14:06;;;;;;;8.35;4.47;;;691.20;1740.80;;;;;;5074548;28;20029;-73
2023/06/30 08:16:32;;;;;;;7.50;5.00;;;691.20;1766.40;;;;;;5079045;28;20103;-72
2023/06/30 08:18:58;;;;;;;9.52;4.40;;;691.30;1740.80;;;;;;5076662;28;20382;-72
2023/06/30 08:21:25;;;;;;;5.38;3.83;;;691.40;1715.20;;;;;;5079668;28;20089;-73
2023/06/30 08:23:50;;;;;;;5.72;3.20;;;691.40;1715.20;;;;;;5078758;28;20044;-74
2023/06/30 08:26:16;;;;;;;8.23;3.80;;;691.40;1612.80;;;;;;5076698;28;20476;-71
2023/06/30 08:28:42;;;;;;;7.20;3.28;;;691.50;1638.40;;;;;;5075718;28;20025;-73
2023/06/30 08:31:08;;;;;;;5.55;3.95;;;691.40;1612.80;;;;;;5079552;28;20471;-73
2023/06/30 08:33:33;;;;;;;3.70;2.83;;;691.30;1689.60;;;;;;5078128;28;20052;-73
2023/06/30 08:36:01;;;;;;;4.75;3.17;;;691.50;1587.20;;;;;;5078996;28;20033;-74
2023/06/30 08:38:27;;;;;;;4.90;3.45;;;691.50;1638.40;;;;;;5083618;28;20047;-73
2023/06/30 08:40:52;;;;;;;7.00;3.10;;;691.60;1612.80;;;;;;5079512;28;20482;-75
2023/06/30 08:43:24;;;;;;;4.97;3.30;;;691.60;1638.40;;;;;;5081289;28;20024;-73
2023/06/30 08:45:53;;;;;;;4.78;2.70;;;691.60;1612.80;;;;;;5075856;28;20031;-74
2023/06/30 08:48:20;;;;;;;3.90;2.35;;;691.80;1664.00;;;;;;5073696;28;20067;-72
2023/06/30 08:50:47;;;;;;;4.10;2.50;;;691.90;1561.60;;;;;;5079708;28;20497;-74
2023/06/30 08:53:12;;;;;;;8.75;2.50;;;691.90;1536.00;;;;;;5081825;28;20102;-73
2023/06/30 08:55:39;;;;;;;4.40;2.33;;;692.00;1587.20;;;;;;5077433;28;20132;-72
2023/06/30 08:58:05;;;;;;;5.20;3.08;;;692.00;1459.20;;;;;;5082146;28;20032;-72
2023/06/30 09:00:30;;;;;;;7.22;2.75;;;691.90;1484.80;;;;;;5082677;28;20020;-73
2023/06/30 09:03:04;;;;;;;5.25;2.63;;;691.90;1484.80;;;;;;5074940;28;20062;-72
2023/06/30 09:05:32;;;;;;;3.08;2.08;;;692.00;1510.40;;;;;;5076329;28;20107;-74
2023/06/30 09:07:58;;;;;;;7.60;2.40;;;692.00;1433.60;;;;;;5083019;28;20040;-73
2023/06/30 09:10:26;;;;;;;3.20;2.00;;;692.10;1433.60;;;;;;5083311;28;20374;-73
2023/06/30 09:12:57;;;;;;;3.78;2.10;;;717.00;1459.20;;;;;;5076868;28;20031;-73
2023/06/30 09:15:24;;;;;;;3.97;1.73;;;716.90;1433.60;;;;;;5075661;28;20012;-74
2023/06/30 09:17:52;;;;;;;11.07;2.88;;;716.90;1408.00;;;;;;5082590;28;20513;-73
2023/06/30 09:20:20;;;;;;;4.22;2.00;;;716.90;1459.20;;;;;;5084651;28;20020;-73
2023/06/30 09:22:45;;;;;;;5.32;2.45;;;716.90;1408.00;;;;;;5078599;28;20021;-73
2023/06/30 09:25:26;;;;;;;3.25;2.17;;;717.00;1433.60;;;;;;5087256;28;20020;-74
2023/06/30 09:27:53;;;;;;;4.70;2.60;;;717.20;1433.60;;;;;;5073097;28;20036;-72
2023/06/30 09:30:18;;;;;;;5.80;2.25;;;717.20;1433.60;;;;;;5076973;28;20037;-75
2023/06/30 09:32:44;;;;;;;4.05;2.50;;;717.30;1510.40;;;;;;5081867;28;20031;-73
2023/06/30 09:35:19;;;;;;;4.13;2.50;;;717.40;1459.20;;;;;;5076338;28;20032;-73
2023/06/30 09:37:44;;;;;;;4.72;2.42;;;717.40;1408.00;;;;;;5080720;28;20331;-76
2023/06/30 09:40:12;;;;;;;3.97;2.17;;;717.50;1382.40;;;;;;5084516;28;20023;-73
2023/06/30 09:42:40;;;;;;;3.78;2.03;;;717.50;1356.80;;;;;;5081734;28;20017;-73
2023/06/30 09:45:06;;;;;;;5.82;2.40;;;717.50;1408.00;;;;;;5071676;28;20032;-73
2023/06/30 09:47:31;;;;;;;3.25;2.40;;;717.60;1408.00;;;;;;5086918;28;20500;-74
2023/06/30 09:49:58;;;;;;;5.07;2.90;;;717.50;1356.80;;;;;;5076567;28;20052;-73
2023/06/30 09:52:25;;;;;;;5.35;3.03;;;717.40;1459.20;;;;;;5076742;28;20071;-72
2023/06/30 09:54:51;;;;;;;4.65;2.33;;;717.50;1433.60;;;;;;5084401;28;20034;-75
2023/06/30 09:57:16;;;;;;;4.63;2.42;;;717.70;1459.20;;;;;;5084278;28;20040;-74
2023/06/30 09:59:44;;;;;;;7.78;3.00;;;742.40;1510.40;;;;;;5077480;28;20070;-74
2023/06/30 10:02:13;;;;;;;6.22;3.05;;;742.70;1433.60;;;;;;5075291;28;20067;-73
2023/06/30 10:04:39;;;;;;;4.80;2.92;;;742.40;1510.40;;;;;;5079667;28;20051;-75
2023/06/30 10:07:06;;;;;;;4.55;2.83;;;717.40;1510.40;;;;;;5083508;28;20048;-73
2023/06/30 10:09:34;;;;;;;6.05;2.72;;;717.20;1510.40;;;;;;5077396;28;20108;-73
2023/06/30 10:12:00;;;;;;;4.47;2.35;;;717.40;1484.80;;;;;;5079517;28;20071;-72
2023/06/30 10:14:28;;;;;;;6.03;2.80;;;742.40;1510.40;;;;;;5075985;28;20033;-74
2023/06/30 10:17:00;;;;;;;4.53;2.42;;;742.70;1433.60;;;;;;5087362;28;20104;-73
2023/06/30 10:19:27;;;;;;;5.40;2.28;;;742.80;1459.20;;;;;;5079728;28;20438;-73
2023/06/30 10:21:54;;;;;;;5.85;2.80;;;743.00;1459.20;;;;;;5084016;28;20024;-73
2023/06/30 10:24:25;;;;;;;4.65;2.50;;;743.00;1561.60;;;;;;5078893;28;20024;-74
2023/06/30 10:26:53;;;;;;;4.28;2.35;;;743.10;1382.40;;;;;;5079470;28;20039;-73
2023/06/30 10:29:20;;;;;;;4.90;2.70;;;;;;;;;;5076649;28;20021;-73
2023/06/30 10:31:46;;;;;;;5.82;2.20;;;743.30;1356.80;;;;;;5083116;28;20486;-73
2023/06/30 10:34:12;;;;;;;5.72;2.95;;;743.30;1356.80;;;;;;5082651;28;20031;-73
2023/06/30 10:36:39;;;;;;;6.50;3.08;;;743.20;1408.00;;;;;;5082781;28;20378;-72
2023/06/30 10:39:05;;;;;;;5.30;2.80;;;;;;;;;;5086453;28;20028;-72
2023/06/30 10:41:44;;;;;;;7.70;3.00;;;768.10;1305.60;;;;;;5084826;28;20020;-73
2023/06/30 10:44:09;;;;;;;4.30;2.33;;;768.10;1331.20;;;;;;5076659;28;20547;-73
2023/06/30 10:46:47;;;;;;;4.20;2.60;;;743.00;1356.80;;;;;;5079703;28;20063;-74
2023/06/30 10:49:19;;;;;;;7.70;2.40;;;743.10;1305.60;;;;;;5080719;28;20554;-73
2023/06/30 10:51:48;;;;;;;4.78;2.25;;;743.10;1382.40;;;;;;5079071;28;20494;-74
2023/06/30 10:54:28;;;;;;;6.15;2.25;;;742.80;1408.00;;;;;;5080085;28;20363;-74
2023/06/30 10:57:10;;;;;;;3.92;2.20;;;743.20;1356.80;;;;;;5077073;28;20104;-73
2023/06/30 10:59:44;;;;;;;3.67;1.95;;;743.30;1356.80;;;;;;5068879;28;20069;-71
2023/06/30 11:02:18;;;;;;;3.75;2.30;;;768.10;1305.60;;;;;;5078158;28;20016;-72
2023/06/30 11:04:47;;;;;;;6.07;2.53;;;768.10;1305.60;;;;;;5074353;28;20056;-71
2023/06/30 11:07:17;;;;;;;3.95;2.30;;;768.20;1331.20;;;;;;5082961;28;20386;-72
2023/06/30 11:09:56;;;;;;;3.75;2.28;;;;;;;;;;5086342;28;20040;-71
2023/06/30 11:12:41;;;;;;;5.05;3.20;;;768.60;1254.40;;;;;;5083971;28;20103;-72
2023/06/30 11:15:07;;;;;;;4.60;2.80;;;768.90;1177.60;;;;;;5079356;28;20024;-72
2023/06/30 11:17:51;;;;;;;5.25;2.50;;;768.90;1177.60;;;;;;5079132;28;20600;-72
2023/06/30 11:20:17;;;;;;;4.57;2.13;;;793.60;1305.60;;;;;;5086193;28;20084;-72
2023/06/30 11:22:57;;;;;;;4.00;2.80;;;793.70;1280.00;;;;;;5077228;28;20107;-71
2023/06/30 11:25:23;;;;;;;6.47;3.10;;;793.70;1305.60;;;;;;5079872;28;20024;-71
2023/06/30 11:27:49;;;;;;;4.68;2.53;;;793.60;1280.00;;;;;;5077127;28;20150;-71
2023/06/30 11:30:18;;;;;;;5.70;2.67;;;793.70;1254.40;;;;;;5078478;28;20078;-72
2023/06/30 11:32:46;;;;;;;5.60;3.25;;;768.90;1177.60;;;;;;5080645;28;20020;-71
2023/06/30 11:35:13;;;;;;;5.57;3.15;;;793.70;1228.80;;;;;;5077819;28;20096;-71
2023/06/30 11:37:39;;;;;;;5.10;2.65;;;793.70;1280.00;;;;;;5078935;28;20453;-71
2023/06/30 11:40:06;;;;;;;4.22;2.90;;;793.80;1254.40;;;;;;5080122;28;20048;-71
2023/06/30 11:42:36;;;;;;;3.67;2.63;;;793.70;1254.40;;;;;;5085292;28;20025;-71
2023/06/30 11:45:04;;;;;;;3.55;2.50;;;768.60;1228.80;;;;;;5077636;28;20025;-70
2023/06/30 11:47:30;;;;;;;3.50;2.47;;;768.60;1280.00;;;;;;5077508;28;20374;-72
2023/06/30 11:49:56;;;;;;;6.25;2.83;;;768.90;1254.40;;;;;;5080079;28;20309;-70
2023/06/30 11:52:22;;;;;;;5.15;2.53;;;793.80;1280.00;;;;;;5077674;28;20425;-70
2023/06/30 11:54:48;;;;;;;8.30;5.20;;;793.90;1331.20;;;;;;5065886;28;20029;-70
2023/06/30 11:57:13;;;;;;;6.85;3.33;;;793.60;1331.20;;;;;;5078733;28;20029;-70
2023/06/30 11:59:39;;;;;;;5.18;2.63;;;793.80;1305.60;;;;;;5076934;28;20024;-71
2023/06/30 12:02:05;;;;;;;4.40;2.83;;;768.90;1280.00;;;;;;5083300;28;20077;-71
2023/06/30 12:04:35;;;;;;;5.28;2.58;;;768.50;1280.00;;;;;;5082809;28;20032;-69
2023/06/30 12:07:03;;;;;;;5.60;2.85;;;768.10;1305.60;;;;;;5081697;28;20048;-70
2023/06/30 12:09:29;;;;;;;4.13;2.60;;;768.40;1356.80;;;;;;5088393;28;20377;-71
2023/06/30 12:12:00;;;;;;;3.55;2.35;;;768.60;1305.60;;;;;;5078934;28;20131;-75
2023/06/30 12:14:26;;;;;;;3.75;2.40;;;768.80;1356.80;;;;;;5074465;28;20025;-70